WetterOnline ( https://www.wetteronline.de )

Wetter aktuell Salzwedel

Aktuelles Wetter: Seehausen (23m)

6-stündlich | Neueste Meldungen
Ortszeit Temperatur Wetter
Mi, 05.10. 14:00 18.1° C wolkig
Mi, 05.10. 8:00 11.3° C bedeckt
Mi, 05.10. 2:00 12.3° C bewölkt
Di, 04.10. 20:00 12.5° C wolkig
Di, 04.10. 14:00 17.2° C leicht bewölkt
Di, 04.10. 8:00 10.0° C wolkig
Di, 04.10. 2:00 11.0° C wolkig
Mo, 03.10. 20:00 14.3° C bewölkt
Ortszeit Temperatur Wetter
Mi, 05.10. 17:30 17.4° C fast wolkenlos
Mi, 05.10. 17:20 17.4° C fast wolkenlos
Mi, 05.10. 17:10 17.3° C leicht bewölkt
Mi, 05.10. 17:00 17.3° C wolkenlos
Mi, 05.10. 16:50 17.3° C wolkenlos
Mi, 05.10. 16:40 17.4° C wolkenlos
Mi, 05.10. 16:30 17.7° C leicht bewölkt
Mi, 05.10. 16:00 17.4° C bewölkt
Mi, 05.10. 15:30 17.6° C bewölkt
Mi, 05.10. 15:00 17.9° C bewölkt
Mi, 05.10. 14:30 18.3° C leicht bewölkt
Ortszeit Relative Feuchte Sichtweite
Mi, 05.10. 14:00 62% 60 km
Mi, 05.10. 8:00 83% 45 km
Mi, 05.10. 2:00 76% 55 km
Di, 04.10. 20:00 79% 50 km
Di, 04.10. 14:00 63% 55 km
Di, 04.10. 8:00 93% 30 km
Di, 04.10. 2:00 94% 27 km
Mo, 03.10. 20:00 80% 40 km
Ortszeit Relative Feuchte Sichtweite
Mi, 05.10. 17:30 64% 55 km
Mi, 05.10. 17:20 64% -
Mi, 05.10. 17:10 63% -
Mi, 05.10. 17:00 63% 45 km
Mi, 05.10. 16:50 63% -
Mi, 05.10. 16:40 63% -
Mi, 05.10. 16:30 63% 55 km
Mi, 05.10. 16:00 65% 50 km
Mi, 05.10. 15:30 63% 40 km
Mi, 05.10. 15:00 62% 60 km
Mi, 05.10. 14:30 62% 55 km
Ortszeit Niederschlagsmenge Niederschlagsart
Mi, 05.10. 14:00 0.0 l/m2 in 6 Std. -
Mi, 05.10. 8:00 0.0 l/m2 in 12 Std. -
Mi, 05.10. 2:00 0.0 l/m2 in 6 Std. -
Di, 04.10. 20:00 0.0 l/m2 in 12 Std. -
Di, 04.10. 14:00 0.0 l/m2 in 6 Std. -
Di, 04.10. 8:00 0.0 l/m2 in 12 Std. -
Di, 04.10. 2:00 0.0 l/m2 in 6 Std. -
Mo, 03.10. 20:00 0.1 l/m2 in 12 Std. Regen
Ortszeit Niederschlagsmenge Niederschlagsart
Mi, 05.10. 17:30 0.0 l/m2 in 1 Std. -
Mi, 05.10. 17:20 keine Meldung -
Mi, 05.10. 17:10 keine Meldung -
Mi, 05.10. 17:00 0.0 l/m2 in 1 Std. -
Mi, 05.10. 16:50 keine Meldung -
Mi, 05.10. 16:40 keine Meldung -
Mi, 05.10. 16:30 0.0 l/m2 in 1 Std. -
Mi, 05.10. 16:00 0.0 l/m2 in 1 Std. -
Mi, 05.10. 15:30 0.0 l/m2 in 1 Std. -
Mi, 05.10. 15:00 0.0 l/m2 in 1 Std. -
Mi, 05.10. 14:30 0.0 l/m2 in 1 Std. -
Ortszeit Stärke Spitze Richtung
km/h Bft. km/h Grad Sektor
Mi, 05.10. 14:00 22 4 36 230° SW
Mi, 05.10. 8:00 11 2 29 190° S
Mi, 05.10. 2:00 11 2 25 220° SW
Di, 04.10. 20:00 7 2 25 150° SO
Di, 04.10. 14:00 11 2 25 230° SW
Di, 04.10. 8:00 4 1 22 170° S
Di, 04.10. 2:00 11 2 29 270° W
Mo, 03.10. 20:00 18 3 40 290° W
Ortszeit Stärke Spitze Richtung
km/h Bft. km/h Grad Sektor
Mi, 05.10. 17:30 11 2 31 220° SW
Mi, 05.10. 17:20 11 2 - 220° SW
Mi, 05.10. 17:10 14 3 - 220° SW
Mi, 05.10. 17:00 18 3 32 220° SW
Mi, 05.10. 16:50 18 3 - 220° SW
Mi, 05.10. 16:40 18 3 - 230° SW
Mi, 05.10. 16:30 20 4 33 230° SW
Mi, 05.10. 16:00 17 3 33 230° SW
Mi, 05.10. 15:30 22 4 33 240° SW
Mi, 05.10. 15:00 22 4 43 230° SW
Mi, 05.10. 14:30 24 4 39 240° SW
Ortszeit Untergrenze Bedeckung Gattung
total tief tief mittel hoch
Mi, 05.10. 14:00 900 m 5/8 5/8 - - -
Mi, 05.10. 8:00 5100 m 8/8 8/8 - - -
Mi, 05.10. 2:00 6600 m 8/8 5/8 - - -
Di, 04.10. 20:00 10500 m 8/8 0/8 - - -
Di, 04.10. 14:00 5700 m 4/8 4/8 - - -
Di, 04.10. 8:00 630 m 8/8 1/8 - - -
Di, 04.10. 2:00 330 m 8/8 3/8 - - -
Mo, 03.10. 20:00 1800 m 7/8 7/8 - - -
Ortszeit Bedeckungsgrad in Achtel und Wolkenuntergrenze
Mi, 05.10. 17:30 2(12000m)
Mi, 05.10. 17:20 2(12000m)
Mi, 05.10. 17:10 2
Mi, 05.10. 17:00 keine Wolken
Mi, 05.10. 16:50 keine Wolken
Mi, 05.10. 16:40 keine Wolken
Mi, 05.10. 16:30 3(840m)
Mi, 05.10. 16:00 7(870m)
Mi, 05.10. 15:30 7(900m)
Mi, 05.10. 15:00 7(930m)
Mi, 05.10. 14:30 3(930m)
Ortszeit Luftdruck NN (hPa) Tendenz (hPa in 3 Std.)
Mi, 05.10. 14:00 1016 - 0,6
Mi, 05.10. 8:00 1017 - 0,5
Mi, 05.10. 2:00 1019 - 0,3
Di, 04.10. 20:00 1019 - 0,9
Di, 04.10. 14:00 1022 - 0,6
Di, 04.10. 8:00 1022 - 0,1
Di, 04.10. 2:00 1022 - 0,2
Mo, 03.10. 20:00 1023 + 0,1
Ortszeit Luftdruck NN (hPa) Tendenz (hPa in 3 Std.)
Mi, 05.10. 17:30 1014 - 1,3
Mi, 05.10. 17:20 1014 keine Meldung
Mi, 05.10. 17:10 1014 keine Meldung
Mi, 05.10. 17:00 1015 - 1,2
Mi, 05.10. 16:50 1015 keine Meldung
Mi, 05.10. 16:40 1015 keine Meldung
Mi, 05.10. 16:30 1015 - 0,9
Mi, 05.10. 16:00 1015 - 1,1
Mi, 05.10. 15:30 1015 - 1,1
Mi, 05.10. 15:00 1016 - 0,9
Mi, 05.10. 14:30 1016 - 0,9
Ortszeit Schneehöhe (cm)
Mi, 05.10. 14:00 0
Mi, 05.10. 8:00 0
Mi, 05.10. 2:00 0
Di, 04.10. 20:00 0
Di, 04.10. 14:00 0
Di, 04.10. 8:00 0
Di, 04.10. 2:00 0
Mo, 03.10. 20:00 0
Ortszeit Schneehöhe (cm)
Mi, 05.10. 17:30 0
Mi, 05.10. 17:20 0
Mi, 05.10. 17:10 0
Mi, 05.10. 17:00 0
Mi, 05.10. 16:50 0
Mi, 05.10. 16:40 0
Mi, 05.10. 16:30 0
Mi, 05.10. 16:00 0
Mi, 05.10. 15:30 0
Mi, 05.10. 15:00 0
Mi, 05.10. 14:30 0
Link zu dieser Seite / Seite empfehlen

Das Wetter in ...